地図

経路データ

SID SEASON NUMBER BASIN SUBBASIN NAME ISO_TIME NATURE LAT LON WMO_WIND WMO_PRES WMO_AGENCY TRACK_TYPE DIST2LAND LANDFALL IFLAG USA_AGENCY USA_ATCF_ID USA_LAT USA_LON USA_RECORD USA_STATUS USA_WIND USA_PRES USA_SSHS USA_R34_NE USA_R34_SE USA_R34_SW USA_R34_NW USA_R50_NE USA_R50_SE USA_R50_SW USA_R50_NW USA_R64_NE USA_R64_SE USA_R64_SW USA_R64_NW USA_POCI USA_ROCI USA_RMW USA_EYE TOKYO_LAT TOKYO_LON TOKYO_GRADE TOKYO_WIND TOKYO_PRES TOKYO_R50_DIR TOKYO_R50_LONG TOKYO_R50_SHORT TOKYO_R30_DIR TOKYO_R30_LONG TOKYO_R30_SHORT TOKYO_LAND CMA_LAT CMA_LON CMA_CAT CMA_WIND CMA_PRES HKO_LAT HKO_LON HKO_CAT HKO_WIND HKO_PRES NEWDELHI_LAT NEWDELHI_LON NEWDELHI_GRADE NEWDELHI_WIND NEWDELHI_PRES NEWDELHI_CI NEWDELHI_DP NEWDELHI_POCI REUNION_LAT REUNION_LON REUNION_TYPE REUNION_WIND REUNION_PRES REUNION_TNUM REUNION_CI REUNION_RMW REUNION_R34_NE REUNION_R34_SE REUNION_R34_SW REUNION_R34_NW REUNION_R50_NE REUNION_R50_SE REUNION_R50_SW REUNION_R50_NW REUNION_R64_NE REUNION_R64_SE REUNION_R64_SW REUNION_R64_NW BOM_LAT BOM_LON BOM_TYPE BOM_WIND BOM_PRES BOM_TNUM BOM_CI BOM_RMW BOM_R34_NE BOM_R34_SE BOM_R34_SW BOM_R34_NW BOM_R50_NE BOM_R50_SE BOM_R50_SW BOM_R50_NW BOM_R64_NE BOM_R64_SE BOM_R64_SW BOM_R64_NW BOM_ROCI BOM_POCI BOM_EYE BOM_POS_METHOD BOM_PRES_METHOD NADI_LAT NADI_LON NADI_CAT NADI_WIND NADI_PRES WELLINGTON_LAT WELLINGTON_LON WELLINGTON_WIND WELLINGTON_PRES DS824_LAT DS824_LON DS824_STAGE DS824_WIND DS824_PRES TD9636_LAT TD9636_LON TD9636_STAGE TD9636_WIND TD9636_PRES TD9635_LAT TD9635_LON TD9635_WIND TD9635_PRES TD9635_ROCI NEUMANN_LAT NEUMANN_LON NEUMANN_CLASS NEUMANN_WIND NEUMANN_PRES MLC_LAT MLC_LON MLC_CLASS MLC_WIND MLC_PRES USA_GUST BOM_GUST BOM_GUST_PER REUNION_GUST REUNION_GUST_PER USA_SEAHGT USA_SEARAD_NE USA_SEARAD_SE USA_SEARAD_SW USA_SEARAD_NW STORM_SPEED STORM_DIR
1986276N07177 1986 101 WP MM ELLEN 1986-10-03 00:00:00 NR 6.90000 176.800 main 2467 2373 __________O___ -1 6.90000 176.800 0 18 237
1986276N07177 1986 101 WP MM ELLEN 1986-10-03 03:00:00 NR 6.41929 176.060 main 2373 2278 __________P___ -1 6.41929 176.060 0 18 237
1986276N07177 1986 101 WP MM ELLEN 1986-10-03 06:00:00 NR 5.95043 175.306 main 2278 2184 __________P___ -1 5.95043 175.306 0 18 239
1986276N07177 1986 101 WP MM ELLEN 1986-10-03 09:00:00 NR 5.50640 174.525 main 2176 2083 __________P___ -1 5.50640 174.525 0 18 242
1986276N07177 1986 101 WP MM ELLEN 1986-10-03 12:00:00 NR 5.10000 173.700 main 2083 1998 __________O___ -1 5.10000 173.700 0 19 246
1986276N07177 1986 101 WP MM ELLEN 1986-10-03 15:00:00 NR 4.74689 172.824 main 1982 1906 __________P___ -1 4.74689 172.824 0 19 251
1986276N07177 1986 101 WP MM ELLEN 1986-10-03 18:00:00 NR 4.47504 171.915 main 1899 1818 __________P___ -1 4.47504 171.915 0 19 257
1986276N07177 1986 101 WP MM ELLEN 1986-10-03 21:00:00 NR 4.31563 170.998 main 1818 1758 __________P___ -1 4.31563 170.998 0 18 264
1986276N07177 1986 101 WP MM ELLEN 1986-10-04 00:00:00 NR 4.30000 170.100 main 1758 1716 __________O___ -1 4.30000 170.100 0 25 18 274
1986276N07177 1986 101 WP MM ELLEN 1986-10-04 03:00:00 NR 4.45193 169.238 main 1720 1693 __________P___ -1 4.45193 169.238 0 25 18 285
1986276N07177 1986 101 WP MM ELLEN 1986-10-04 06:00:00 NR 4.74218 168.398 main 1693 1685 __________P___ -1 4.74218 168.398 0 25 18 292
1986276N07177 1986 101 WP MM ELLEN 1986-10-04 09:00:00 NR 5.11134 167.585 main 1690 1685 __________P___ -1 5.11134 167.585 0 25 18 295
1986276N07177 1986 101 WP MM ELLEN 1986-10-04 12:00:00 NR 5.50000 166.800 main 1693 1689 __________O___ -1 5.50000 166.800 0 25 17 296
1986276N07177 1986 101 WP MM ELLEN 1986-10-04 15:00:00 NR 5.84989 166.038 main 1692 1692 __________P___ -1 5.84989 166.038 0 25 16 295
1986276N07177 1986 101 WP MM ELLEN 1986-10-04 18:00:00 NR 6.20195 165.305 main 1710 1706 __________P___ -1 6.20195 165.305 0 25 16 295
1986276N07177 1986 101 WP MM ELLEN 1986-10-04 21:00:00 NR 6.52805 164.595 main 1710 1698 __________P___ -1 6.52805 164.595 0 25 15 293
1986276N07177 1986 101 WP MM ELLEN 1986-10-05 00:00:00 NR 6.80000 163.900 main 1698 1676 __________O___ -1 6.80000 163.900 0 25 14 289
1986276N07177 1986 101 WP MM ELLEN 1986-10-05 03:00:00 NR 6.99415 163.222 main 1674 1644 __________P___ -1 6.99415 163.222 0 25 14 284
1986276N07177 1986 101 WP MM ELLEN 1986-10-05 06:00:00 NR 7.13175 162.557 main 1644 1602 __________P___ -1 7.13175 162.557 0 25 13 280
1986276N07177 1986 101 WP MM ELLEN 1986-10-05 09:00:00 NR 7.22850 161.888 main 1602 1563 __________P___ -1 7.22850 161.888 0 25 14 277
1986276N07177 1986 101 WP MM ELLEN 1986-10-05 12:00:00 NR 7.30000 161.200 main 1563 1526 __________O___ -1 7.30000 161.200 0 25 14 276
1986276N07177 1986 101 WP MM ELLEN 1986-10-05 15:00:00 NR 7.38364 160.463 main 1526 1472 __________P___ -1 7.38364 160.463 0 25 15 276
1986276N07177 1986 101 WP MM ELLEN 1986-10-05 18:00:00 NR 7.44486 159.707 main 1472 1438 __________P___ -1 7.44486 159.707 0 25 15 274
1986276N07177 1986 101 WP MM ELLEN 1986-10-05 21:00:00 NR 7.48363 158.948 main 1432 1392 __________P___ -1 7.48363 158.948 0 25 15 272
1986276N07177 1986 101 WP MM ELLEN 1986-10-06 00:00:00 NR 7.50000 158.200 main 1392 1352 __________O___ -1 7.50000 158.200 0 25 14 270
1986276N07177 1986 101 WP MM ELLEN 1986-10-06 03:00:00 NR 7.48790 157.494 main 1352 1315 __________P___ -1 7.48790 157.494 0 25 14 268
1986276N07177 1986 101 WP MM ELLEN 1986-10-06 06:00:00 NR 7.45677 156.800 main 1315 1270 __________P___ -1 7.45677 156.800 0 25 14 267
1986276N07177 1986 101 WP MM ELLEN 1986-10-06 09:00:00 NR 7.42228 156.106 main 1270 1237 __________P___ -1 7.42228 156.106 0 25 14 268
1986276N07177 1986 101 WP MM ELLEN 1986-10-06 12:00:00 NR 7.40000 155.400 main 1237 1207 __________O___ -1 7.40000 155.400 0 25 14 270
1986276N07177 1986 101 WP MM ELLEN 1986-10-06 15:00:00 NR 7.41017 154.681 main 1207 1183 __________P___ -1 7.41017 154.681 0 25 14 271
1986276N07177 1986 101 WP MM ELLEN 1986-10-06 18:00:00 NR 7.43433 153.945 main 1179 1170 __________P___ -1 7.43433 153.945 0 25 15 272
1986276N07177 1986 101 WP MM ELLEN 1986-10-06 21:00:00 NR 7.46633 153.187 main 1171 1155 __________P___ -1 7.46633 153.187 0 25 15 272
1986276N07177 1986 101 WP MM ELLEN 1986-10-07 00:00:00 NR 7.50000 152.400 main 1155 1145 __________O___ -1 7.50000 152.400 0 25 16 272
1986276N07177 1986 101 WP MM ELLEN 1986-10-07 03:00:00 NR 7.51691 151.558 main 1145 1136 __________P___ -1 7.51691 151.558 0 25 17 271
1986276N07177 1986 101 WP MM ELLEN 1986-10-07 06:00:00 NR 7.53509 150.692 main 1136 1119 __________P___ -1 7.53509 150.692 0 25 17 271
1986276N07177 1986 101 WP MM ELLEN 1986-10-07 09:00:00 NR 7.56067 149.830 main 1119 1101 __________P___ -1 7.56067 149.830 0 25 17 272
1986276N07177 1986 101 WP MM ELLEN 1986-10-07 12:00:00 NR 7.60000 149.000 main 1101 1092 __________O___ -1 7.60000 149.000 0 25 16 274
1986276N07177 1986 101 WP MM ELLEN 1986-10-07 15:00:00 NR 7.66806 148.239 main 1101 1098 __________P___ -1 7.66806 148.239 0 25 15 276
1986276N07177 1986 101 WP MM ELLEN 1986-10-07 18:00:00 NR 7.74911 147.513 main 1098 1098 __________P___ -1 7.74911 147.513 0 25 14 277
1986276N07177 1986 101 WP MM ELLEN 1986-10-07 21:00:00 NR 7.83063 146.805 main 1109 1109 __________P___ -1 7.83063 146.805 0 25 14 276
1986276N07177 1986 101 WP MM ELLEN 1986-10-08 00:00:00 NR 7.90000 146.100 main 1121 1121 __________O___ -1 7.90000 146.100 0 25 14 274
1986276N07177 1986 101 WP MM ELLEN 1986-10-08 03:00:00 NR 7.93097 145.367 main 1128 1128 __________P___ -1 7.93097 145.367 0 25 15 272
1986276N07177 1986 101 WP MM ELLEN 1986-10-08 06:00:00 NR 7.94965 144.635 main 1142 1142 __________P___ -1 7.94965 144.635 0 25 14 271
1986276N07177 1986 101 WP MM ELLEN 1986-10-08 09:00:00 NR 7.96849 143.910 main 1170 1170 __________P___ -1 7.96849 143.910 0 25 14 272
1986276N07177 1986 101 WP MM ELLEN 1986-10-08 12:00:00 NR 8.00000 143.200 main 1193 1184 __________O___ -1 8.00000 143.200 0 25 13 274
1986276N07177 1986 101 WP MM ELLEN 1986-10-08 15:00:00 NR 8.07173 142.559 main 1190 1165 __________P___ -1 8.07173 142.559 0 25 13 277
1986276N07177 1986 101 WP MM ELLEN 1986-10-08 18:00:00 NR 8.15587 141.925 main 1172 1150 __________P___ -1 8.15587 141.925 0 25 13 277
1986276N07177 1986 101 WP MM ELLEN 1986-10-08 21:00:00 NR 8.23715 141.253 main 1150 1138 __________P___ -1 8.23715 141.253 0 25 14 276
1986276N07177 1986 101 WP MM ELLEN 1986-10-09 00:00:00 NR 8.30000 140.500 main 1138 1103 __________O___ -1 8.30000 140.500 1 25 16 271
1986276N07177 1986 101 WP MM ELLEN 1986-10-09 03:00:00 NR 8.26903 139.606 main 1099 1072 __________P___ -1 8.26903 139.606 1 25 16 269
1986276N07177 1986 101 WP MM ELLEN 1986-10-09 06:00:00 TS 8.28028 138.904 main 1072 1045 __O_______P___ -1 8.50000 140.000 0 19 1005 8.22535 138.630 1 25 15 271
1986276N07177 1986 101 WP MM ELLEN 1986-10-09 09:00:00 TS 8.29107 138.085 main 1045 1025 __P_______P___ -1 8.43542 139.025 0 21 1004 8.21889 137.615 1 25 16 272
1986276N07177 1986 101 WP MM ELLEN 1986-10-09 12:00:00 TS 8.33750 137.300 1006 tokyo main 1025 1025 _OO_______O___ -1 8.00000 138.000 2 1006 0 0 0 8.50000 138.000 1 23 1004 8.30000 136.600 1 25 17 282
1986276N07177 1986 101 WP MM ELLEN 1986-10-09 15:00:00 TS 8.63764 136.414 main 1045 990 _PP_______P___ -1 8.53756 137.063 2 1006 0 0 8.76971 136.888 1 23 1004 8.55562 135.616 1 25 20 289
1986276N07177 1986 101 WP MM ELLEN 1986-10-09 18:00:00 TS 8.99898 135.397 1006 tokyo main 979 866 _OO_______P___ -1 9.00000 136.000 2 1006 0 0 0 9.10000 135.700 1 23 1004 8.89719 134.642 1 25 22 288
1986276N07177 1986 101 WP MM ELLEN 1986-10-09 21:00:00 TS 9.30687 134.286 main 866 753 _PP_______P___ -1 9.32528 134.750 2 1006 0 0 9.33021 134.413 1 23 1003 9.26512 133.697 1 25 23 284
1986276N07177 1986 101 WP MM ELLEN 1986-10-10 00:00:00 TS 9.53333 133.167 1006 tokyo main 753 662 _OO_______O___ -1 9.50000 133.500 2 1006 0 0 0 9.50000 133.200 1 23 1002 9.60000 132.800 1 25 21 280
1986276N07177 1986 101 WP MM ELLEN 1986-10-10 03:00:00 TS 9.65625 132.228 main 655 569 _PP_______P___ -1 9.53686 132.462 2 1005 0 0 9.60680 132.247 1 26 1001 9.82508 131.974 1 27 18 277
1986276N07177 1986 101 WP MM ELLEN 1986-10-10 06:00:00 TS 9.73616 131.366 1004 tokyo main 569 474 _OO_______P___ -1 9.50000 131.500 2 1004 0 0 0 9.70000 131.400 1 29 1000 10.0085 131.197 1 30 17 275
1986276N07177 1986 101 WP MM ELLEN 1986-10-10 09:00:00 TS 9.81753 130.464 main 474 381 _PP_______P___ -1 9.46251 130.462 2 1002 0 0 9.82738 130.485 1 29 1000 10.1627 130.446 1 32 18 276
1986276N07177 1986 101 WP MM ELLEN 1986-10-10 12:00:00 TS 9.93333 129.600 1000 tokyo main 381 302 _OO_______O___ -1 9.50000 129.500 2 1000 0 0 0 10.0000 129.600 1 29 1000 10.3000 129.700 2 35 17 280
1986276N07177 1986 101 WP MM ELLEN 1986-10-10 15:00:00 TS 10.1221 128.792 main 302 242 _PP_______P___ -1 9.70466 128.698 2 998 0 0 10.2348 128.763 1 29 998 10.4268 128.916 2 37 16 285
1986276N07177 1986 101 WP MM ELLEN 1986-10-10 18:00:00 TS 10.3473 128.045 40 996 tokyo main 232 180 _OO_______P___ -1 10.0000 128.000 3 40 996 0 9 80 80 0 10.5000 128.000 1 29 996 10.5420 128.134 2 40 15 288
1986276N07177 1986 101 WP MM ELLEN 1986-10-10 21:00:00 TS 10.5777 127.338 main 169 100 _PP_______P___ -1 10.3073 127.335 3 40 994 0 9 80 80 10.7648 127.320 1 29 995 10.6612 127.360 2 42 14 288
1986276N07177 1986 101 WP MM ELLEN 1986-10-11 00:00:00 TS 10.7929 126.664 40 992 tokyo main 100 21 OOOO______O___ jtwc_wp WP191986 10.8000 126.600 45 0 10.6000 126.700 3 40 992 0 9 80 80 0 11.0000 126.700 1 29 995 10.7000 126.700 TD 30 1000 10.8000 126.600 2 45 14 287
1986276N07177 1986 101 WP MM ELLEN 1986-10-11 03:00:00 TS 10.9862 125.984 main 21 0 PPPP______P___ WP191986 11.0004 125.840 45 0 10.8224 126.042 3 42 992 0 9 90 90 11.1572 126.115 1 33 995 10.9902 126.020 TD 32 997 10.9698 125.848 2 45 14 286
1986276N07177 1986 101 WP MM ELLEN 1986-10-11 06:00:00 TS 11.1860 125.292 45 992 tokyo main 0 0 OOOO______P___ jtwc_wp WP191986 11.2000 125.100 45 0 11.0000 125.400 3 45 992 0 9 100 100 0 11.3000 125.500 2 38 995 11.3000 125.300 TS 35 995 11.1619 125.112 2 45 15 287
1986276N07177 1986 101 WP MM ELLEN 1986-10-11 09:00:00 TS 11.4146 124.573 main 10 0 PPPP______P___ WP191986 11.3998 124.392 45 0 11.1573 124.800 3 45 993 0 9 100 100 11.5001 124.750 2 38 995 11.6426 124.528 TS 37 993 11.3730 124.395 2 45 15 288
1986276N07177 1986 101 WP MM ELLEN 1986-10-11 12:00:00 TS 11.6400 123.880 45 994 tokyo main 24 22 OOOO______O___ jtwc_wp WP191986 11.6000 123.700 45 0 11.3000 124.200 3 45 994 0 9 100 100 0 11.7000 124.000 2 38 995 12.0000 123.800 TS 40 992 11.6000 123.700 2 45 14 288
1986276N07177 1986 101 WP MM ELLEN 1986-10-11 15:00:00 TS 11.8425 123.222 main 35 0 PPPP______P___ WP191986 11.7849 122.985 42 0 11.4424 123.565 3 42 994 0 9 90 90 11.8124 123.347 2 38 995 12.3497 123.220 TS 40 991 11.8232 122.996 2 43 13 289
1986276N07177 1986 101 WP MM ELLEN 1986-10-11 18:00:00 TS 12.0725 122.603 40 994 tokyo main 49 46 OOOO______P___ jtwc_wp WP191986 12.0000 122.300 40 0 11.6000 122.900 3 40 994 0 9 80 80 0 12.0000 122.800 2 38 995 12.7000 122.700 TS 40 990 12.0623 122.317 2 42 13 294
1986276N07177 1986 101 WP MM ELLEN 1986-10-11 21:00:00 TS 12.3779 122.014 main 48 0 PPPP______P___ WP191986 12.2848 121.677 40 0 11.7474 122.200 3 40 994 0 9 85 85 12.4573 122.355 2 38 995 13.0798 122.158 TS 40 990 12.3202 121.680 2 41 13 299
1986276N07177 1986 101 WP MM ELLEN 1986-10-12 00:00:00 TS 12.7000 121.460 40 994 tokyo main 0 0 OOOO______O___ jtwc_wp WP191986 12.6000 121.100 40 0 12.0000 121.500 3 40 994 0 9 90 90 0 12.9000 122.000 2 38 995 13.4000 121.600 TS 40 990 12.6000 121.100 2 40 12 299
1986276N07177 1986 101 WP MM ELLEN 1986-10-12 03:00:00 TS 12.9683 120.927 main 0 0 PPPP______P___ WP191986 12.8925 120.512 40 0 12.4475 120.805 3 42 993 0 9 95 95 13.0294 121.767 2 38 995 13.5651 120.985 TS 40 990 12.9070 120.564 2 41 12 298
1986276N07177 1986 101 WP MM ELLEN 1986-10-12 06:00:00 TS 13.2469 120.418 45 992 tokyo main 10 10 OOOO______P___ jtwc_wp WP191986 13.2000 120.000 40 0 13.0000 120.200 3 45 992 0 9 100 100 0 13.1000 121.400 2 38 995 13.7000 120.400 TS 40 990 13.2344 120.088 2 42 12 302
1986276N07177 1986 101 WP MM ELLEN 1986-10-12 09:00:00 TS 13.5895 119.898 main 48 48 PPPP______P___ WP191986 13.5498 119.612 42 0 13.5873 119.747 3 45 992 0 9 100 100 13.3059 120.565 2 38 995 13.9349 119.898 TS 40 990 13.5697 119.667 2 43 12 306
1986276N07177 1986 101 WP MM ELLEN 1986-10-12 12:00:00 TS 13.9400 119.440 45 992 tokyo main 112 112 OOOO______O___ jtwc_wp WP191986 13.9000 119.300 45 0 14.1000 119.400 3 45 992 0 9 100 100 0 13.6000 119.700 2 38 995 14.2000 119.500 TS 40 990 13.9000 119.300 2 45 10 310
1986276N07177 1986 101 WP MM ELLEN 1986-10-12 15:00:00 TS 14.2535 119.087 main 121 121 PPPP______P___ WP191986 14.2075 118.985 47 0 14.3949 119.077 3 45 992 0 9 125 125 13.9846 119.210 2 38 995 14.4573 119.227 TS 42 988 14.2232 118.938 2 47 9 315
1986276N07177 1986 101 WP MM ELLEN 1986-10-12 18:00:00 TS 14.5474 118.806 45 992 tokyo main 143 141 OOOO______P___ jtwc_wp WP191986 14.5000 118.700 50 0 14.6000 118.800 3 45 992 0 9 150 150 0 14.4000 118.900 2 38 995 14.7000 119.000 TS 45 987 14.5372 118.630 2 50 8 317
1986276N07177 1986 101 WP MM ELLEN 1986-10-12 21:00:00 TS 14.8400 118.528 main 164 160 PPPP______P___ WP191986 14.8150 118.420 52 0 14.8575 118.520 3 47 991 0 9 150 150 14.7949 118.627 2 43 991 14.9000 118.692 TS 45 987 14.8327 118.382 2 52 7 318
1986276N07177 1986 101 WP MM ELLEN 1986-10-13 00:00:00 TS 15.1000 118.300 50 990 tokyo main 174 174 OOOO______O___ jtwc_wp WP191986 15.1000 118.200 55 0 15.1000 118.300 4 50 990 0 9 150 150 0 15.1000 118.400 3 48 988 15.1000 118.400 TS 45 987 15.1000 118.200 2 55 6 319
1986276N07177 1986 101 WP MM ELLEN 1986-10-13 03:00:00 TS 15.2971 118.117 main 188 184 PPPP______P___ WP191986 15.3150 118.062 57 0 15.3074 118.177 4 52 987 0 9 200 162 15.1851 118.105 3 48 986 15.3575 118.163 TS 47 984 15.3204 118.077 2 56 5 323
1986276N07177 1986 101 WP MM ELLEN 1986-10-13 06:00:00 TS 15.4830 118.003 55 985 tokyo main 190 184 OOOO______P___ jtwc_wp WP191986 15.5000 118.000 60 0 15.5000 118.100 4 55 985 9 30 30 7 250 175 0 15.3000 117.900 3 48 985 15.6000 118.000 STS 50 982 15.5148 118.017 2 57 4 340
1986276N07177 1986 101 WP MM ELLEN 1986-10-13 09:00:00 TS 15.7173 117.959 main 184 182 PPPP______P___ WP191986 15.6925 117.985 60 0 15.6925 117.978 4 55 982 9 30 30 7 250 175 15.7500 117.912 3 53 982 15.7500 117.920 STS 52 981 15.7017 117.999 2 58 5 356
1986276N07177 1986 101 WP MM ELLEN 1986-10-13 12:00:00 TS 15.9600 117.960 55 980 tokyo main 181 181 OOOO______O___ jtwc_wp WP191986 15.9000 118.000 60 0 15.9000 117.900 4 55 980 9 30 30 7 250 175 0 16.2000 118.000 3 58 980 15.9000 117.900 STS 55 980 15.9000 118.000 2 60 5 0
1986276N07177 1986 101 WP MM ELLEN 1986-10-13 15:00:00 TS 16.1824 117.967 main 183 183 PPPP______P___ WP191986 16.1425 118.000 62 0 16.1500 117.927 4 57 977 9 45 45 7 250 175 16.3375 118.008 3 63 978 16.1425 117.885 STS 57 977 16.1396 118.014 2 62 4 2
1986276N07177 1986 101 WP MM ELLEN 1986-10-13 18:00:00 TS 16.3985 117.987 60 975 tokyo main 187 187 OOOO______P___ jtwc_wp WP191986 16.4000 118.000 65 1 16.4000 118.000 4 60 975 9 60 60 7 250 175 0 16.4000 118.000 4 68 977 16.4000 117.900 STS 60 975 16.3924 118.037 2 65 4 6
1986276N07177 1986 101 WP MM ELLEN 1986-10-13 21:00:00 TS 16.6168 118.013 main 193 193 PPPP______P___ WP191986 16.6500 118.000 67 1 16.6000 118.065 4 62 975 9 60 60 7 250 175 16.5850 118.007 4 68 976 16.6000 117.950 STS 60 975 16.6490 118.042 2 67 4 6
1986276N07177 1986 101 WP MM ELLEN 1986-10-14 00:00:00 TS 16.8400 118.020 65 975 tokyo main 199 199 OOOO______O___ jtwc_wp WP191986 16.9000 118.000 70 1 16.8000 118.100 5 65 975 9 60 60 7 250 175 0 16.8000 118.000 4 68 975 16.8000 118.000 STS 60 975 16.9000 118.000 4 70 5 0
1986276N07177 1986 101 WP MM ELLEN 1986-10-14 03:00:00 TS 17.0806 117.990 main 211 211 PPPP______P___ WP191986 17.1574 118.052 72 1 17.0575 118.073 5 65 972 9 60 60 7 250 187 16.9775 117.957 4 68 970 17.0500 118.022 STS 65 972 17.1608 117.843 4 72 5 348
1986276N07177 1986 101 WP MM ELLEN 1986-10-14 06:00:00 TS 17.3221 117.909 65 970 tokyo main 231 231 OOOO______P___ jtwc_wp WP191986 17.4000 118.000 75 1 17.3000 118.000 5 65 970 9 60 60 7 250 200 0 17.2000 117.900 4 68 965 17.3000 118.000 T 70 970 17.4103 117.643 4 75 5 335
1986276N07177 1986 101 WP MM ELLEN 1986-10-14 09:00:00 TS 17.5685 117.754 main 257 257 PPPP______P___ WP191986 17.6303 117.628 77 1 17.4725 117.915 5 67 970 9 65 65 7 250 200 17.5800 117.865 4 72 962 17.5300 117.915 T 72 970 17.6296 117.446 4 77 5 326
1986276N07177 1986 101 WP MM ELLEN 1986-10-14 12:00:00 TS 17.7600 117.600 70 970 tokyo main 286 286 OOOO______O___ jtwc_wp WP191986 17.8000 117.300 80 1 17.6000 117.800 5 70 970 9 70 70 8 250 200 0 17.9000 117.800 4 77 960 17.7000 117.800 T 75 970 17.8000 117.300 4 80 3 323
1986276N07177 1986 101 WP MM ELLEN 1986-10-14 15:00:00 TS 17.8393 117.540 main 296 296 PPPP______P___ WP191986 17.8725 117.412 80 1 17.7150 117.643 5 70 967 9 70 70 8 250 200 17.9600 117.665 4 77 961 17.7650 117.700 T 77 970 17.8840 117.279 4 78 1 317
1986276N07177 1986 101 WP MM ELLEN 1986-10-14 18:00:00 TS 17.8645 117.502 70 965 tokyo main 298 298 OOOO______P___ jtwc_wp WP191986 17.9000 117.600 80 1 17.8000 117.500 5 70 965 9 70 70 8 250 200 0 17.9000 117.500 4 77 963 17.8000 117.600 T 80 970 17.9224 117.312 4 77 1 295
1986276N07177 1986 101 WP MM ELLEN 1986-10-14 21:00:00 TS 17.8864 117.430 main 308 308 PPPP______P___ WP191986 17.9350 117.530 77 1 17.8350 117.435 5 70 967 9 72 72 8 250 200 17.8275 117.327 4 77 965 17.8850 117.493 T 82 967 17.9496 117.364 4 76 2 299
1986276N07177 1986 101 WP MM ELLEN 1986-10-15 00:00:00 TS 17.9400 117.360 70 970 tokyo main 308 308 OOOO______O___ jtwc_wp WP191986 18.0000 117.400 75 1 17.9000 117.400 5 70 970 9 75 75 8 250 200 0 17.8000 117.200 4 77 968 18.0000 117.400 ST 85 965 18.0000 117.400 4 75 2 332
1986276N07177 1986 101 WP MM ELLEN 1986-10-15 03:00:00 TS 18.0809 117.318 main 322 322 PPPP______P___ WP191986 18.1350 117.343 75 1 18.0850 117.350 5 70 970 9 75 75 8 250 200 17.9125 117.177 4 77 969 18.1425 117.342 ST 82 967 18.1294 117.380 4 73 3 348
1986276N07177 1986 101 WP MM ELLEN 1986-10-15 06:00:00 TS 18.2570 117.288 70 970 tokyo main 326 326 OOOO______P___ jtwc_wp WP191986 18.3000 117.300 75 1 18.3000 117.300 5 70 970 9 75 75 8 250 200 0 18.1000 117.200 4 77 970 18.3000 117.300 T 80 970 18.2850 117.338 4 72 4 348
1986276N07177 1986 101 WP MM ELLEN 1986-10-15 09:00:00 TS 18.4226 117.248 main 339 339 PPPP______P___ WP191986 18.4575 117.250 72 1 18.4575 117.250 5 70 972 9 75 75 8 250 200 18.2925 117.207 4 77 970 18.4575 117.257 T 75 972 18.4481 117.277 4 71 3 346
1986276N07177 1986 101 WP MM ELLEN 1986-10-15 12:00:00 TS 18.5800 117.200 70 975 tokyo main 346 346 OOOO______O___ jtwc_wp WP191986 18.6000 117.200 70 1 18.6000 117.200 5 70 975 9 75 75 8 250 200 0 18.5000 117.200 4 77 970 18.6000 117.200 T 70 975 18.6000 117.200 4 70 3 343
1986276N07177 1986 101 WP MM ELLEN 1986-10-15 15:00:00 TS 18.7249 117.147 main 359 359 PPPP______P___ WP191986 18.7075 117.165 70 1 18.7650 117.157 5 70 975 9 75 75 8 250 200 18.7300 117.173 4 77 970 18.7075 117.107 T 70 975 18.7143 117.131 4 71 3 335
1986276N07177 1986 101 WP MM ELLEN 1986-10-15 18:00:00 TS 18.8430 117.069 70 975 tokyo main 363 363 OOOO______P___ jtwc_wp WP191986 18.8000 117.100 70 1 18.9000 117.100 5 70 975 9 75 75 8 250 200 0 18.9000 117.100 4 77 970 18.8000 117.000 T 70 975 18.8149 117.045 4 72 3 317
1986276N07177 1986 101 WP MM ELLEN 1986-10-15 21:00:00 TS 18.9146 116.961 main 377 377 PPPP______P___ WP191986 18.9000 116.965 72 1 18.9575 117.022 5 67 977 9 72 72 8 250 200 18.9075 116.965 4 72 972 18.9000 116.915 T 67 975 18.9080 116.937 4 73 3 300
1986276N07177 1986 101 WP MM ELLEN 1986-10-16 00:00:00 TS 18.9800 116.820 65 980 tokyo main 401 401 OOOO______O___ jtwc_wp WP191986 19.0000 116.800 75 1 19.0000 116.900 5 65 980 9 70 70 8 250 200 0 18.9000 116.800 4 68 975 19.0000 116.800 T 65 975 19.0000 116.800 4 75 3 301
1986276N07177 1986 101 WP MM ELLEN 1986-10-16 03:00:00 TS 19.0815 116.662 main 413 398 PPPP______P___ WP191986 19.0999 116.665 72 1 19.0850 116.722 5 65 977 9 70 70 8 250 200 19.0349 116.665 4 68 975 19.1000 116.615 T 65 975 19.0878 116.641 4 72 4 303
1986276N07177 1986 101 WP MM ELLEN 1986-10-16 06:00:00 TS 19.1955 116.470 65 975 tokyo main 398 383 OOOO______P___ jtwc_wp WP191986 19.2000 116.500 70 1 19.2000 116.500 5 65 975 9 70 70 8 250 200 0 19.2000 116.500 4 68 975 19.2000 116.400 T 65 975 19.1774 116.452 4 70 4 300
1986276N07177 1986 101 WP MM ELLEN 1986-10-16 09:00:00 TS 19.3011 116.251 main 383 364 PPPP______P___ WP191986 19.2925 116.272 67 1 19.3500 116.265 5 65 975 9 70 70 8 250 200 19.3000 116.265 4 68 975 19.2849 116.215 T 65 975 19.2783 116.238 4 67 5 297
1986276N07177 1986 101 WP MM ELLEN 1986-10-16 12:00:00 TS 19.4200 116.000 65 975 tokyo main 364 334 OOOO______O___ jtwc_wp WP191986 19.4000 116.000 65 1 19.5000 116.000 5 65 975 9 70 70 8 250 200 0 19.4000 116.000 4 68 975 19.4000 116.000 T 65 975 19.4000 116.000 4 65 6 298
1986276N07177 1986 101 WP MM ELLEN 1986-10-16 15:00:00 TS 19.5656 115.715 main 334 312 PPPP______P___ WP191986 19.5350 115.700 65 1 19.6001 115.692 5 65 975 9 70 70 8 250 200 19.5425 115.750 4 68 975 19.5926 115.700 T 65 975 19.5577 115.731 4 65 6 300
1986276N07177 1986 101 WP MM ELLEN 1986-10-16 18:00:00 TS 19.7271 115.429 65 975 tokyo main 312 284 OOOO______P___ jtwc_wp WP191986 19.7000 115.400 65 1 19.7000 115.400 5 65 975 9 70 70 8 250 200 0 19.7000 115.500 4 68 975 19.8000 115.400 T 65 975 19.7353 115.443 4 65 6 303
1986276N07177 1986 101 WP MM ELLEN 1986-10-16 21:00:00 TS 19.8955 115.181 main 284 256 PPPP______P___ WP191986 19.9000 115.128 65 1 19.8424 115.185 5 65 975 9 67 67 8 250 200 19.8575 115.250 4 68 975 19.9574 115.185 T 67 975 19.9202 115.159 4 65 6 307
1986276N07177 1986 101 WP MM ELLEN 1986-10-17 00:00:00 TS 20.0600 114.960 65 975 tokyo main 256 240 OOOO______O___ jtwc_wp WP191986 20.1000 114.900 65 1 20.0000 115.000 5 65 975 9 65 65 4 250 200 0 20.0000 115.000 4 68 975 20.1000 115.000 T 70 975 20.1000 114.900 4 65 5 307
1986276N07177 1986 101 WP MM ELLEN 1986-10-17 03:00:00 TS 20.2000 114.755 main 240 225 PPPP______P___ WP191986 20.2574 114.742 65 1 20.1425 114.800 5 65 975 9 67 67 4 250 200 20.0850 114.742 4 68 975 20.2500 114.792 T 70 975 20.2651 114.696 4 63 5 307
1986276N07177 1986 101 WP MM ELLEN 1986-10-17 06:00:00 TS 20.3444 114.564 65 975 tokyo main 225 201 OOOO______P___ jtwc_wp WP191986 20.4000 114.600 65 1 20.3000 114.600 5 65 975 9 70 70 4 250 200 0 20.2000 114.500 4 68 975 20.4000 114.600 T 70 975 20.4222 114.520 4 62 5 313
1986276N07177 1986 101 WP MM ELLEN 1986-10-17 09:00:00 TS 20.5266 114.377 main 201 179 PPPP______P___ WP191986 20.5575 114.400 62 0 20.5075 114.393 5 65 975 9 70 70 4 225 200 20.4500 114.285 4 68 975 20.5499 114.450 T 70 975 20.5682 114.359 4 61 5 316
1986276N07177 1986 101 WP MM ELLEN 1986-10-17 12:00:00 TS 20.7000 114.200 65 975 tokyo main 179 160 OOOO______O___ jtwc_wp WP191986 20.7000 114.200 60 0 20.7000 114.200 5 65 975 9 70 70 9 200 200 0 20.7000 114.100 4 68 975 20.7000 114.300 T 70 975 20.7000 114.200 2 60 4 313
1986276N07177 1986 101 WP MM ELLEN 1986-10-17 15:00:00 TS 20.8311 114.034 main 160 145 PPPP______P___ WP191986 20.8074 114.050 57 0 20.8225 114.042 5 62 977 9 60 60 9 175 175 20.8300 113.942 4 68 975 20.8650 114.100 T 67 975 20.8305 114.033 2 57 4 307
1986276N07177 1986 101 WP MM ELLEN 1986-10-17 18:00:00 TS 20.9290 113.873 60 980 tokyo main 145 123 OOOO______P___ jtwc_wp WP191986 20.9000 113.900 55 0 20.9000 113.900 4 60 980 9 50 50 9 150 150 0 20.9000 113.800 4 68 975 21.0000 113.900 T 65 975 20.9448 113.865 2 55 3 301
1986276N07177 1986 101 WP MM ELLEN 1986-10-17 21:00:00 TS 21.0078 113.714 main 123 108 PPPP______P___ WP191986 21.0150 113.708 52 0 20.9649 113.765 4 55 982 9 9 137 137 20.9575 113.657 4 68 975 21.0649 113.750 T 62 975 21.0367 113.689 2 52 3 293
1986276N07177 1986 101 WP MM ELLEN 1986-10-18 00:00:00 TS 21.0600 113.540 50 985 tokyo main 103 98 OOOO______O___ jtwc_wp WP191986 21.1000 113.500 50 0 21.0000 113.600 4 50 985 0 9 125 125 0 21.0000 113.500 4 68 975 21.1000 113.600 STS 60 975 21.1000 113.500 2 50 4 285
1986276N07177 1986 101 WP MM ELLEN 1986-10-18 03:00:00 TS 21.1013 113.345 main 94 90 PPPP______P___ WP191986 21.1150 113.307 47 0 21.0075 113.365 4 50 985 0 9 112 112 21.0500 113.315 4 68 975 21.1649 113.423 STS 60 977 21.1691 113.314 2 47 4 279
1986276N07177 1986 101 WP MM ELLEN 1986-10-18 06:00:00 TS 21.1209 113.122 50 985 tokyo main 90 84 OOOO______P___ jtwc_wp WP191986 21.1000 113.100 45 0 21.0000 113.100 4 50 985 0 9 100 100 0 21.1000 113.100 4 68 975 21.2000 113.200 STS 60 980 21.2045 113.111 2 45 4 273
1986276N07177 1986 101 WP MM ELLEN 1986-10-18 09:00:00 TS 21.1250 112.880 main 84 73 PPPP______P___ WP191986 21.1000 112.865 42 0 20.9999 112.857 4 50 987 0 9 100 100 21.1649 112.880 4 63 977 21.1725 112.922 STS 57 982 21.1877 112.877 2 42 5 268
1986276N07177 1986 101 WP MM ELLEN 1986-10-18 12:00:00 TS 21.1000 112.600 50 990 tokyo main 73 67 OOOO______O___ jtwc_wp WP191986 21.1000 112.600 40 0 21.0000 112.600 4 50 990 0 9 100 100 0 21.2000 112.600 3 58 980 21.1000 112.600 STS 55 985 21.1000 112.600 2 40 6 260
1986276N07177 1986 101 WP MM ELLEN 1986-10-18 15:00:00 TS 21.0308 112.286 main 78 69 PPPP______P___ WP191986 21.1748 112.331 37 0 20.9999 112.323 4 47 992 0 9 100 100 21.1574 112.237 3 53 982 20.9848 112.280 STS 47 987 20.8368 112.258 2 37 7 254
1986276N07177 1986 101 WP MM ELLEN 1986-10-18 18:00:00 TS 20.9143 111.911 45 994 tokyo main 73 67 OOOO______P___ jtwc_wp WP191986 21.1000 112.000 35 0 21.0000 112.000 3 45 994 0 9 100 100 0 21.1000 111.800 3 48 985 20.9000 111.900 TS 40 990 20.5179 111.877 2 35 8 253
1986276N07177 1986 101 WP MM ELLEN 1986-10-18 21:00:00 TS 20.8005 111.477 main 70 61 PPPP______P___ WP191986 20.7004 111.576 32 -1 20.9998 111.645 3 40 996 0 9 85 85 21.0925 111.308 3 43 987 20.9200 111.423 TS 35 992 20.2399 111.483 2 32 9 260
1986276N07177 1986 101 WP MM ELLEN 1986-10-19 00:00:00 TS 20.7588 111.006 35 998 tokyo main 61 23 OOOO______O___ jtwc_wp WP191986 20.1000 111.100 30 -1 21.0000 111.200 3 35 998 0 9 70 70 0 21.1000 110.800 2 38 990 21.0000 110.900 TD 30 994 20.1000 111.100 1 30 9 274
1986276N07177 1986 101 WP MM ELLEN 1986-10-19 03:00:00 TS 20.8612 110.526 main 24 0 _PPP______P___ WP191986 -1 21.0002 110.615 3 999 0 9 21.0924 110.335 2 38 992 21.0999 110.400 TD 30 996 20.2523 110.754 1 9 281
1986276N07177 1986 101 WP MM ELLEN 1986-10-19 06:00:00 TS 20.9342 110.078 1000 tokyo main 0 0 _OOO______P___ -1 21.0000 110.000 2 1000 0 0 0 21.1000 109.900 2 38 995 21.2000 109.900 TD 30 998 20.5448 110.422 1 8 282
1986276N07177 1986 101 WP MM ELLEN 1986-10-19 09:00:00 TS 21.0303 109.678 main 0 0 _PPP______P___ -1 20.9997 109.485 2 1000 0 0 21.1402 109.493 2 33 997 21.2628 109.400 TD 27 999 20.8899 110.104 1 7 285
1986276N07177 1986 101 WP MM ELLEN 1986-10-19 12:00:00 TS 21.1300 109.320 1000 tokyo main 33 22 _OOO______O___ -1 21.0000 109.000 2 1000 0 0 0 21.2000 109.100 1 29 1000 21.3000 108.900 TD 25 1000 21.2000 109.800 6 7 285
1986276N07177 1986 101 WP MM ELLEN 1986-10-19 15:00:00 TS 21.2036 109.005 main 30 30 _P________P___ -1 20.9999 108.500 2 1002 0 0 1 TD 21.4073 109.511 6 7 277
1986276N07177 1986 101 WP MM ELLEN 1986-10-19 18:00:00 TS 21.2240 108.529 1004 tokyo main 44 30 _O________P___ -1 21.0000 108.000 2 1004 0 0 0 21.5228 109.234 6 10 266
1986276N07177 1986 101 WP MM ELLEN 1986-10-19 21:00:00 TS 21.1422 107.988 main 35 10 _P________P___ -1 20.9249 107.499 2 1006 0 0 21.5768 108.965 6 10 266
1986276N07177 1986 101 WP MM ELLEN 1986-10-20 00:00:00 TS 21.1500 107.425 1008 tokyo main 0 0 _O________O___ -1 21.0000 107.000 2 1008 0 0 0 21.6000 108.700 6 14 281
1986276N07177 1986 101 WP MM ELLEN 1986-10-20 03:00:00 TS 21.4003 106.501 main 0 0 _P____________ -1 21.4003 106.501 2 1010 0 0 6 16 303
1986276N07177 1986 101 WP MM ELLEN 1986-10-20 06:00:00 TS 22.0000 106.000 1012 tokyo main 0 _O____________ -1 22.0000 106.000 2 1012 0 0 0 6 15 322

デジタル台風データ・検索

IBTrACS Databaseについて

本データベースは、米国NOAAが公開する1842年以降の世界の熱帯低気圧のベストトラックデータアーカイブInternational Best Track Archive for Climate Stewardship (IBTrACS)を、ウェブで閲覧しやすい形式に変換したものです。

最終更新日:2021-10-25